の過去48時間の天気

Alert Airport

現在時刻: 2/20 12:11 EST (2/20 17:11 UTC) 以下の時間は現地時間です。

過去48時間のMETAR気象情報
時間 風向 風速(m/s) 視程 気温(℃) 湿度(%) 気圧(hPa) 天気現象
20 11:00 西南西 3 4850m -23 76 1001.5 弱い雪 もや
20 10:00 西南西 3 4850m -24 84 1002.3 弱い雪 もや
20 09:00 南西 2 6450m -28 83 1003 弱い雪 もや
20 08:00 南西 2 4850m -25 76 1003.1 弱い雪 もや
20 07:00 南南東 3 4850m -29 83 1003.4 弱い雪 もや
20 06:00 3 4850m -28 75 1004 弱い雪 もや
20 05:00 4 10km以上 -28 75 1004.2 弱い雪 もや
20 04:00 静穏 0 10km以上 -26 83 1004 弱い雪
20 03:00 静穏 0 10km以上 -26 76 1004.6
19 16:00 南南西 2 10km以上 -32 75 1008.7
19 15:00 南南西 3 10km以上 -35 74 1008.5
19 14:00 西 5 10km以上 -33 74 1008.4
19 13:00 北北西 4 10km以上 -34 67 1009.3
19 12:00 北北西 4 10km以上 -34 67 1009.1
19 11:00 北北西 3 10km以上 -32 68 1009.1
19 10:00 西 1 10km以上 -32 75 1009.3
19 09:00 南西 1 10km以上 -33 74 1009.5
19 08:00 1 10km以上 -34 74 1009.7
19 07:00 西 3 10km以上 -31 75 1009.7
19 06:00 西 4 10km以上 -31 75 1010
19 05:00 西 4 10km以上 -32 75 1010.5
19 04:00 西南西 4 10km以上 -35 74 1010.4
19 03:00 静穏 0 10km以上 -33 74 1010.4
19 02:00 静穏 0 10km以上 -33 74 1010.4
19 01:00 静穏 0 10km以上 -30 75 1010.1
18 16:00 北東 2 10km以上 -32 75 1009.8
18 15:00 静穏 0 10km以上 -32 75 1009.4
18 14:00 北北東 1 10km以上 -34 74 1009.3
18 13:00 西 3 10km以上 -29 75 1008.7
CYLT 201600Z 24005KT 3SM -SN BR SCT035 OVC090 M23/M26 A2956 RMK SC4AC4 SLP015
CYLT 201500Z 24006KT 3SM -SN BR SCT035 OVC090 M24/M26 A2958 RMK SC4AC4 SLP023
CYLT 201400Z 23003KT 4SM -SN BR BKN035 OVC090 M28/M30 A2960 RMK SC6AC2 SLP030
CYLT 201300Z 23004KT 3SM -SN BR BKN040 OVC090 M25/M28 A2960 RMK SC6AC2 SLP031
CYLT 201200Z 15005KT 3SM -SN BR BKN045 OVC090 M29/M31 A2961 RMK SC6AC2 SLP034
CYLT 201100Z 35005KT 3SM -SN BR SCT050 OVC090 M28/M31 A2963 RMK SC4AC4 SLP040
CYLT 201000Z 35007KT 6SM -SN BR BKN090 BKN240 M28/M31 A2964 RMK AC6CI2 PCPN VRY LGT SLP042
CYLT 200900Z 00000KT 8SM -SN SCT090 BKN240 M26/M28 A2963 RMK AC4CI2 PCPN VRY LGT SLP040
CYLT 200800Z 00000KT 15SM SCT240 M26/M29 A2965 RMK CI3 FST OBS SLP046
CYLT 192100Z 21003KT 15SM SKC M32/M35 A2977 RMK LAST OBS/NEXT 200800 UTC SLP087
CYLT 192000Z 21005KT 15SM SKC M35/M38 A2976 RMK SLP085
CYLT 191900Z 28010KT 15SM FEW020 FEW120 M33/M36 A2976 RMK SC1AC1 SLP084
CYLT 191800Z 33008KT 15SM FEW020 FEW120 SCT240 M34/M38 A2979 RMK SC2AC1CI2 SLP093
CYLT 191700Z 33008KT 15SM SCT020 BKN120 BKN240 M34/M38 A2978 RMK SC3AC2CI2 SLP091
CYLT 191600Z 33006KT 15SM SCT020 BKN120 BKN240 M32/M36 A2978 RMK SC3AC2CI2 SLP091
CYLT 191500Z 26002KT 15SM FEW020 SCT120 BKN240 M32/M35 A2979 RMK SC2AC2CI2 SLP093
CYLT 191400Z 22002KT 15SM FEW020 FEW120 FEW240 M33/M36 A2979 RMK SC1AC1CI2 SLP095
CYLT 191300Z 10002KT 15SM FEW035 FEW120 FEW240 M34/M37 A2980 RMK SC1AC1CI2 SLP097
CYLT 191200Z 26006KT 15SM FEW120 FEW240 M31/M34 A2980 RMK AC1CI1 SLP097
CYLT 191100Z 26008KT 15SM FEW240 M31/M34 A2981 RMK CI1 SLP100
CYLT 191000Z 26007KT 15SM SKC M32/M35 A2982 RMK SLP105
CYLT 190900Z 25007KT 15SM SKC M35/M38 A2982 RMK SLP104
CYLT 190800Z 00000KT 15SM SKC M33/M36 A2982 RMK SLP104
CYLT 190700Z 00000KT 15SM SKC M33/M36 A2982 RMK SLP104
CYLT 190600Z 00000KT 15SM FEW240 M30/M33 A2981 RMK CI1 FST OBS SLP101
CYLT 182100Z 04003KT 15SM FEW035 BKN070 M32/M35 A2980 RMK SC2AC2 LAST OBS/NEXT 190600 UTC SLP098
CYLT 182000Z 00000KT 15SM FEW035 BKN070 M32/M35 A2979 RMK SC2AC2 SLP094
CYLT 181900Z 02002KT 15SM FEW035 BKN070 M34/M37 A2979 RMK SC2AC2 SLP093
CYLT 181800Z 28006KT 15SM FEW030 SCT060 M29/M32 A2977 RMK SC1SC2 SLP087